METAR v bližini

 

LJLJ - Ljubljana/Brnik, Slovenia
Oddaljenost od postaje: Z 41km
Podatki zajeti: 20/11/2017 18:00
Jasno
Jasno
 Veter iz smeri spremenljiv
Veter: spremenljiv 4 km/h
Temperatura: -2°C
Rosišče: -2°C
Vlažnost: 100%
Tlak: 1018 hPa
Stanje: Jasno
Vidljivost: večja od 10 km
2017/11/20 17:00 LJLJ 201700Z VRB02KT CAVOK M02/M02 Q1018 NOSIG
LJMB - Maribor, Slovenia
Oddaljenost od postaje: SV 63km
Podatki zajeti: 20/11/2017 18:00
Jasno
Jasno
 Veter iz smeri Z
Veter: Z 4 km/h
Temperatura: 4°C
Rosišče: -2°C
Vlažnost: 65%
Tlak: 1018 hPa
Stanje: Jasno
Vidljivost: večja od 10 km
2017/11/20 17:00 LJMB 201700Z 28002KT CAVOK 04/M02 Q1018
 
LJPZ - Portoroz, Slovenia
Oddaljenost od postaje: JZ 130km
Podatki zajeti: 20/11/2017 18:00
Delno oblačno
Delno oblačno
 Veter iz smeri VJV
Veter: VJV 13 km/h
Temperatura: 6°C
Občutek mraza zaradi vetra: 3°C
Rosišče: 4°C
Vlažnost: 87%
Tlak: 1019 hPa
Oblačnost: Delno oblačno
Vidljivost: 10 km
Podrobnosti o oblakih: Rahlo oblačno 1219 m
Delno oblačno 6706 m
2017/11/20 17:00 LJPZ 201700Z 12007KT 9999 FEW040 SCT220 06/04 Q1019
LJCE - Cerklje, Slovenia
Oddaljenost od postaje: VJV 49km
Podatki zajeti: 20/11/2017 18:00
Delno oblačno
Delno oblačno
 Veter iz smeri Z
Veter: Z 2 km/h
Temperatura: 3°C
Rosišče: 1°C
Vlažnost: 87%
Tlak: 1019 hPa
Oblačnost: Delno oblačno
Vidljivost: 10 km
2017/11/20 17:00 LJCE 201700Z AUTO 27001KT 9999 NSC 03/01 Q1019
 
LDZA - Zagreb/Pleso, Croatia
Oddaljenost od postaje: VJV 96km
Podatki zajeti: 20/11/2017 18:30
Jasno
Jasno
 Veter iz smeri SV
Veter: SV 7 km/h
Temperatura: 5°C
Občutek mraza zaradi vetra: 3°C
Rosišče: 3°C
Vlažnost: 87%
Tlak: 1019 hPa
Stanje: Jasno
Vidljivost: večja od 10 km
2017/11/20 17:30 LDZA 201730Z 04004KT 360V070 CAVOK 05/03 Q1019 NOSIG
LDRI - Rijeka/Omisalj, Croatia
Oddaljenost od postaje: JJZ 109km
Podatki zajeti: 20/11/2017 18:30
Rahlo oblačno
Rahlo oblačno
 Veter iz smeri VJV
Veter: VJV 17 km/h
Temperatura: 8°C
Občutek mraza zaradi vetra: 5°C
Rosišče: 2°C
Vlažnost: 66%
Tlak: 1020 hPa
Oblačnost: Rahlo oblačno
Vidljivost: 10 km
Podrobnosti o oblakih: Rahlo oblačno 1524 m
2017/11/20 17:30 LDRI 201730Z 12009KT 9999 FEW050 08/02 Q1020
 
LDPL - Pula, Croatia
Oddaljenost od postaje: JJZ 164km
Podatki zajeti: 20/11/2017 18:30
Jasno
Jasno
 Veter iz smeri V
Veter: V 7 km/h
Temperatura: 6°C
Občutek mraza zaradi vetra: 4°C
Rosišče: 3°C
Vlažnost: 81%
Tlak: 1019 hPa
Stanje: Jasno
Vidljivost: večja od 10 km
2017/11/20 17:30 LDPL 201730Z 09004KT CAVOK 06/03 Q1019 NOSIG
LOWK - Klagenfurt(Civ/M, Austria
Oddaljenost od postaje: SZ 76km
Podatki zajeti: 20/11/2017 18:20
Delno oblačno
Delno oblačno
 Veter iz smeri SZ
Veter: SZ 6 km/h
Temperatura: 3°C
Rosišče: -3°C
Vlažnost: 65%
Tlak: 1018 hPa
Oblačnost: Delno oblačno
Vidljivost: 10 km
Podrobnosti o oblakih: Delno oblačno 2743 m
2017/11/20 17:20 LOWK 201720Z 31003KT 9999 SCT090 03/M03 Q1018 NOSIG
 
LOWG - Graz (mil/Civ), Austria
Oddaljenost od postaje: SSV 100km
Podatki zajeti: 20/11/2017 18:20
Jasno
Jasno
 Veter iz smeri ZSZ
Veter: ZSZ 6 km/h
Temperatura: 5°C
Rosišče: -3°C
Vlažnost: 57%
Tlak: 1018 hPa
Stanje: Jasno
Vidljivost: večja od 10 km
2017/11/20 17:20 LOWG 201720Z 29003KT CAVOK 05/M03 Q1018 NOSIG
LOWZ - Zell Am See, Austria
Oddaljenost od postaje: SZ 211km
Podatki zajeti: 31/12/2016 17:00
Ni posodobljen
Jasno
Jasno
 Veter iz smeri spremenljiv
Veter: spremenljiv 4 km/h
Temperatura: -4°C
Rosišče: -7°C
Vlažnost: 80%
Tlak: 1031 hPa
Oblačnost: Jasno
2016/12/31 16:00 LOWZ 311600Z VRB02KT 50KM SKC M04/M07 Q1031
 
LOAN - Wr.neustadt East, Austria
Oddaljenost od postaje: SSV 212km
Podatki zajeti: 20/11/2017 15:00
Ni posodobljen
Pretežno oblačno
Pretežno oblačno
 Veter iz smeri Z
Veter: Z 26 km/h, Sunek vetra: 48 km/h
Oblačnost: Pretežno oblačno
Podrobnosti o oblakih: Rahlo oblačno 610 m
Delno oblačno 1219 m
Pretežno oblačno 9144 m
2017/11/20 14:00 LOAN 201400Z 28014G26KT 25KM FEW020CU SCT040SC BKN300CI
LIPQ - Ronchi Legionari, Italy
Oddaljenost od postaje: JZ 35km
Podatki zajeti: 20/11/2017 18:20
Jasno
Jasno
 Veter iz smeri V
Veter: V 4 km/h
Temperatura: 6°C
Rosišče: 2°C
Vlažnost: 76%
Tlak: 1019 hPa
Stanje: Jasno
Vidljivost: večja od 10 km
2017/11/20 17:20 LIPQ 201720Z 08002KT CAVOK 06/02 Q1019
 
LIVT - Trieste, Italy
Oddaljenost od postaje: ZJZ 109km
Podatki zajeti: 20/11/2017 17:55
Rahlo oblačno
Rahlo oblačno
 Veter iz smeri SV
Veter: SV 2 km/h
Temperatura: 8°C
Rosišče: 4°C
Vlažnost: 76%
Tlak: 1019 hPa
Oblačnost: Rahlo oblačno
Vidljivost: 10 km
Podrobnosti o oblakih: Rahlo oblačno 1219 m
2017/11/20 16:55 LIVT 201655Z 04001KT 9999 FEW040 08/04 Q1019 RMK SCT SCT070 QUK / QUL / VIS MAR 20 KM VIS MIN 9999
LIVO - Tarvisio, Italy
Oddaljenost od postaje: SSZ 49km
Podatki zajeti: 20/11/2017 17:55
Jasno
Jasno
 Veter iz smeri Z
Veter: Z 2 km/h
Temperatura: 1°C
Rosišče: -3°C
Vlažnost: 75%
Tlak: 1016 hPa
Stanje: Jasno
Vidljivost: večja od 10 km
2017/11/20 16:55 LIVO 201655Z 27001KT CAVOK 01/M03 Q1016 RMK SKC VIS MIN 9999
 
LIPZ - Venezia/Tessera, Italy
Oddaljenost od postaje: ZJZ 217km
Podatki zajeti: 20/11/2017 18:20
Delno oblačno
Delno oblačno
 Veter iz smeri VSV
Veter: VSV 4 km/h
Temperatura: 9°C
Rosišče: 5°C
Vlažnost: 76%
Tlak: 1019 hPa
Oblačnost: Delno oblačno
Vidljivost: 9 km
2017/11/20 17:20 LIPZ 201720Z 06002KT 9000 NSC 09/05 Q1019 NOSIG
LHSM - Balaton, Hungary
Oddaljenost od postaje: VSV 177km
Podatki zajeti: 20/11/2017 16:45
Ni posodobljen
Jasno
Jasno
 Veter iz smeri calm
Veter: Tišina
Temperatura: 6°C
Rosišče: -1°C
Vlažnost: 61%
Tlak: 1019 hPa
Stanje: Jasno
Vidljivost: večja od 10 km
2017/11/20 15:45 LHSM 201545Z 00000KT CAVOK 06/M01 Q1019